createdAt,value
2018-09-30T00:00:20.239Z,9.81
2018-09-30T00:02:56.031Z,10.02
2018-09-30T00:05:31.904Z,10.22
2018-09-30T00:08:07.767Z,10.34
2018-09-30T00:10:43.758Z,10.29
2018-09-30T00:13:19.557Z,10.33
2018-09-30T00:15:55.420Z,10.32
2018-09-30T00:18:31.624Z,10.19
2018-09-30T00:21:07.981Z,10.15
2018-09-30T00:25:52.237Z,10.37
2018-09-30T00:28:28.212Z,10.25
2018-09-30T00:31:04.568Z,10.14
2018-09-30T00:33:45.392Z,10.24
2018-09-30T00:36:21.419Z,10.18
2018-09-30T00:38:57.596Z,10.40
2018-09-30T00:41:33.397Z,10.42
2018-09-30T00:44:09.279Z,10.55
2018-09-30T00:46:45.481Z,10.61
2018-09-30T00:49:21.291Z,10.43
2018-09-30T00:51:57.234Z,10.58
2018-09-30T00:54:33.293Z,10.44
2018-09-30T00:57:09.227Z,10.44
2018-09-30T00:59:45.184Z,10.56
2018-09-30T01:02:21.070Z,10.51
2018-09-30T01:04:56.943Z,10.58
2018-09-30T01:07:33.216Z,10.55
2018-09-30T01:10:09.201Z,10.69
2018-09-30T01:12:47.574Z,10.69
2018-09-30T01:15:23.436Z,10.87
2018-09-30T01:17:59.328Z,10.81
2018-09-30T01:20:35.243Z,10.81
2018-09-30T01:23:11.028Z,10.87
2018-09-30T01:25:46.907Z,10.93
2018-09-30T01:28:22.568Z,10.63
2018-09-30T01:30:58.429Z,10.54
2018-09-30T01:33:34.752Z,10.46
2018-09-30T01:36:10.580Z,10.54
2018-09-30T01:38:46.855Z,10.54
2018-09-30T01:41:22.734Z,10.57
2018-09-30T01:43:59.101Z,10.59
2018-09-30T01:46:35.132Z,10.64
2018-09-30T01:49:11.100Z,10.67
2018-09-30T01:51:56.644Z,10.73
2018-09-30T01:54:32.561Z,10.70
2018-09-30T01:57:08.599Z,10.65
2018-09-30T01:59:44.405Z,10.61
2018-09-30T02:02:20.341Z,10.54
2018-09-30T02:04:56.118Z,10.39
2018-09-30T02:07:32.036Z,10.47
2018-09-30T02:10:07.851Z,10.40
2018-09-30T02:12:43.739Z,10.39
2018-09-30T02:15:19.589Z,10.23
2018-09-30T02:17:55.408Z,9.97
2018-09-30T02:20:31.167Z,10.08
2018-09-30T02:23:07.063Z,9.91
2018-09-30T02:25:45.458Z,10.06
2018-09-30T02:28:22.096Z,10.21
2018-09-30T02:30:58.592Z,10.08
2018-09-30T02:33:34.701Z,10.03
2018-09-30T02:36:10.647Z,10.20
2018-09-30T02:38:46.536Z,10.27
2018-09-30T02:41:22.476Z,10.38
2018-09-30T02:43:58.791Z,10.37
2018-09-30T02:46:34.725Z,10.44
2018-09-30T02:49:10.723Z,10.44
2018-09-30T02:51:46.658Z,10.46
2018-09-30T02:54:22.533Z,10.49
2018-09-30T02:56:58.332Z,10.27
2018-09-30T02:59:34.307Z,10.40
2018-09-30T03:02:10.225Z,10.57
2018-09-30T03:04:46.106Z,10.38
2018-09-30T03:07:27.007Z,10.54
2018-09-30T03:10:02.860Z,10.47
2018-09-30T03:12:38.676Z,10.45
2018-09-30T03:15:14.560Z,10.47
2018-09-30T03:17:50.378Z,10.52
2018-09-30T03:20:26.197Z,10.53
2018-09-30T03:23:02.012Z,10.11
2018-09-30T03:25:37.924Z,10.03
2018-09-30T03:28:13.720Z,10.01
2018-09-30T03:30:50.248Z,9.99
2018-09-30T03:33:26.182Z,10.11
2018-09-30T03:36:02.115Z,10.24
2018-09-30T03:38:38.032Z,9.94
2018-09-30T03:41:14.080Z,9.97
2018-09-30T03:43:50.548Z,9.78
2018-09-30T03:46:26.873Z,9.79
2018-09-30T03:49:02.670Z,9.92
2018-09-30T03:51:38.660Z,9.80
2018-09-30T03:54:14.460Z,9.78
2018-09-30T03:56:50.449Z,9.96
2018-09-30T03:59:26.308Z,10.05
2018-09-30T04:02:02.247Z,10.07
2018-09-30T04:04:38.184Z,10.37
2018-09-30T04:07:14.057Z,10.32
2018-09-30T04:09:49.914Z,10.36
2018-09-30T04:12:26.093Z,10.31
2018-09-30T04:15:01.937Z,10.38
2018-09-30T04:17:37.813Z,10.54
2018-09-30T04:20:13.620Z,10.56
2018-09-30T04:22:49.524Z,10.54
2018-09-30T04:25:25.467Z,10.32
2018-09-30T04:28:01.356Z,10.28
2018-09-30T04:30:37.176Z,10.18
2018-09-30T04:33:13.178Z,9.99
2018-09-30T04:35:49.177Z,9.94
2018-09-30T04:38:25.125Z,10.05
2018-09-30T04:41:01.021Z,10.28
2018-09-30T04:43:37.672Z,9.99
2018-09-30T04:46:13.447Z,10.15
2018-09-30T04:48:49.373Z,10.09
2018-09-30T04:51:25.333Z,10.06
2018-09-30T04:54:01.177Z,10.31
2018-09-30T04:56:36.973Z,10.51
2018-09-30T04:59:13.256Z,10.57
2018-09-30T05:01:49.164Z,10.46
2018-09-30T05:04:25.186Z,10.62
2018-09-30T05:07:01.043Z,10.64
2018-09-30T05:09:36.910Z,10.66
2018-09-30T05:12:12.697Z,10.47
2018-09-30T05:14:49.209Z,10.33
2018-09-30T05:17:25.027Z,10.39
2018-09-30T05:20:13.038Z,10.56
2018-09-30T05:22:49.240Z,10.75
2018-09-30T05:25:25.198Z,10.79
2018-09-30T05:28:01.063Z,10.75
2018-09-30T05:30:36.917Z,10.81
2018-09-30T05:33:12.747Z,10.80
2018-09-30T05:35:48.631Z,10.80
2018-09-30T05:38:24.680Z,10.86
2018-09-30T05:41:00.676Z,10.91
2018-09-30T05:43:36.531Z,10.91
2018-09-30T05:46:12.516Z,11.06
2018-09-30T05:48:48.325Z,11.16
2018-09-30T05:51:24.232Z,11.05
2018-09-30T05:54:00.014Z,10.56
2018-09-30T05:56:36.020Z,10.34
2018-09-30T05:59:11.911Z,10.22
2018-09-30T06:01:47.749Z,10.40
2018-09-30T06:04:23.550Z,10.26
2018-09-30T06:06:59.573Z,10.52
2018-09-30T06:09:35.589Z,10.71
2018-09-30T06:12:11.756Z,10.50
2018-09-30T06:14:47.761Z,10.52
2018-09-30T06:17:23.633Z,10.43
2018-09-30T06:21:27.368Z,10.49
2018-09-30T06:24:03.315Z,10.51
2018-09-30T06:26:40.302Z,10.79
2018-09-30T06:29:16.242Z,10.77
2018-09-30T06:31:52.258Z,10.85
2018-09-30T06:34:28.349Z,10.88
2018-09-30T06:37:04.223Z,11.09
2018-09-30T06:39:40.169Z,11.12
2018-09-30T06:42:16.149Z,11.02
2018-09-30T06:44:52.005Z,11.19
2018-09-30T06:47:28.156Z,10.98
2018-09-30T06:50:04.206Z,10.97
2018-09-30T06:52:40.047Z,11.04
2018-09-30T06:55:15.991Z,11.33
2018-09-30T06:57:51.779Z,11.46
2018-09-30T07:00:27.732Z,11.51
2018-09-30T07:03:03.555Z,11.50
2018-09-30T07:05:39.377Z,11.79
2018-09-30T07:08:15.457Z,12.03
2018-09-30T07:10:51.466Z,12.20
2018-09-30T07:13:27.546Z,12.37
2018-09-30T07:16:03.399Z,12.50
2018-09-30T07:18:39.213Z,12.54
2018-09-30T07:21:15.063Z,12.61
2018-09-30T07:23:51.329Z,12.87
2018-09-30T07:33:47.438Z,12.90
2018-09-30T07:36:23.508Z,13.08
2018-09-30T07:38:59.360Z,13.29
2018-09-30T07:41:35.182Z,13.38
2018-09-30T07:44:11.562Z,13.34
2018-09-30T07:46:47.405Z,13.54
2018-09-30T07:49:23.405Z,13.56
2018-09-30T07:51:59.245Z,13.48
2018-09-30T07:54:35.087Z,13.58
2018-09-30T07:57:10.893Z,13.45
2018-09-30T07:59:47.358Z,13.45
2018-09-30T08:02:23.276Z,13.50
2018-09-30T08:04:59.105Z,13.50
2018-09-30T08:07:34.980Z,13.50
2018-09-30T08:10:10.836Z,13.39
2018-09-30T08:12:46.643Z,13.57
2018-09-30T08:15:22.605Z,13.47
2018-09-30T08:17:58.417Z,13.47
2018-09-30T08:20:35.092Z,13.29
2018-09-30T08:23:10.943Z,13.25
2018-09-30T08:25:47.385Z,13.29
2018-09-30T08:28:23.358Z,13.28
2018-09-30T08:30:59.397Z,13.37
2018-09-30T08:33:35.062Z,13.45
2018-09-30T08:36:11.474Z,13.61
2018-09-30T08:38:47.289Z,13.67
2018-09-30T08:41:23.198Z,13.72
2018-09-30T08:43:59.140Z,13.83
2018-09-30T08:46:35.530Z,13.89
2018-09-30T08:49:11.458Z,13.82
2018-09-30T08:51:47.348Z,13.88
2018-09-30T08:54:23.121Z,13.85
2018-09-30T08:56:58.949Z,13.63
2018-09-30T08:59:34.861Z,13.60
2018-09-30T09:02:10.772Z,13.68
2018-09-30T09:04:46.630Z,13.80
2018-09-30T09:07:22.528Z,13.93
2018-09-30T09:09:58.389Z,13.79
2018-09-30T09:12:34.554Z,13.87
2018-09-30T09:15:10.284Z,13.98
2018-09-30T09:17:46.404Z,13.97
2018-09-30T09:20:22.468Z,13.96
2018-09-30T09:22:58.323Z,13.96
2018-09-30T09:25:34.244Z,14.16
2018-09-30T09:28:10.533Z,14.02
2018-09-30T09:30:46.516Z,13.98
2018-09-30T09:33:22.456Z,14.12
2018-09-30T09:35:58.409Z,14.21
2018-09-30T09:38:34.354Z,13.99
2018-09-30T09:41:10.516Z,13.84
2018-09-30T09:43:46.368Z,13.71
2018-09-30T09:46:22.209Z,13.64
2018-09-30T09:48:58.187Z,13.73
2018-09-30T09:51:34.423Z,13.77
2018-09-30T09:54:10.416Z,13.85
2018-09-30T09:56:46.159Z,13.63
2018-09-30T09:59:22.129Z,13.43
2018-09-30T10:01:58.247Z,13.47
2018-09-30T10:04:35.124Z,13.50
2018-09-30T10:07:11.023Z,13.53
2018-09-30T10:09:46.951Z,13.29
2018-09-30T10:12:23.140Z,13.12
2018-09-30T10:14:58.961Z,13.06
2018-09-30T10:17:34.805Z,13.12
2018-09-30T10:20:11.099Z,13.19
2018-09-30T10:22:47.038Z,13.16
2018-09-30T10:25:22.913Z,12.91
2018-09-30T10:27:58.704Z,13.10
2018-09-30T10:30:34.623Z,13.09
2018-09-30T10:33:10.583Z,13.02
2018-09-30T10:35:46.494Z,12.77
2018-09-30T10:38:22.828Z,12.52
2018-09-30T10:40:58.852Z,12.43
2018-09-30T10:43:34.685Z,12.31
2018-09-30T10:46:10.654Z,12.40
2018-09-30T10:48:46.604Z,12.44
2018-09-30T10:51:22.587Z,12.47
2018-09-30T10:53:58.621Z,12.45
2018-09-30T10:56:34.483Z,12.61
2018-09-30T10:59:10.287Z,12.45
2018-09-30T11:01:46.361Z,12.56
2018-09-30T11:04:22.124Z,12.61
2018-09-30T11:06:58.193Z,12.68
2018-09-30T11:09:34.214Z,12.72
2018-09-30T11:12:10.137Z,12.58
2018-09-30T11:14:46.038Z,12.62
2018-09-30T11:17:21.981Z,12.64
2018-09-30T11:19:57.960Z,12.69
2018-09-30T11:22:33.949Z,12.70
2018-09-30T11:25:09.921Z,12.44
2018-09-30T11:27:45.836Z,12.37
2018-09-30T11:30:22.000Z,12.48
2018-09-30T11:32:57.894Z,12.43
2018-09-30T11:35:33.960Z,12.34
2018-09-30T11:38:10.059Z,12.30
2018-09-30T11:40:46.078Z,12.28
2018-09-30T11:43:21.933Z,12.30
2018-09-30T11:45:57.717Z,12.31
2018-09-30T11:48:33.628Z,12.50
2018-09-30T11:51:09.512Z,12.35
2018-09-30T11:53:48.256Z,12.42
2018-09-30T11:56:24.101Z,12.63
2018-09-30T11:59:00.268Z,12.58
2018-09-30T12:01:36.097Z,12.61
2018-09-30T12:04:12.099Z,12.81
2018-09-30T12:06:47.939Z,12.77
2018-09-30T12:09:23.892Z,12.72
2018-09-30T12:11:59.802Z,12.36
2018-09-30T12:14:31.561Z,12.23
2018-09-30T12:17:02.413Z,12.41
2018-09-30T12:19:33.297Z,12.53
2018-09-30T12:22:04.155Z,12.47
2018-09-30T12:24:35.240Z,12.60
2018-09-30T12:27:06.536Z,12.69
2018-09-30T12:29:37.627Z,12.52
2018-09-30T12:32:08.544Z,12.37
2018-09-30T12:34:39.451Z,12.40
2018-09-30T12:37:10.489Z,12.33
2018-09-30T12:39:41.450Z,12.27
2018-09-30T12:42:12.297Z,12.33
2018-09-30T12:44:43.197Z,12.46
2018-09-30T12:47:14.048Z,12.36
2018-09-30T12:49:44.929Z,12.40
2018-09-30T12:52:15.803Z,12.56
2018-09-30T12:54:46.862Z,12.50
2018-09-30T12:57:17.706Z,12.49
2018-09-30T12:59:48.567Z,12.46
2018-09-30T13:02:19.391Z,12.16
2018-09-30T13:04:50.267Z,12.03
2018-09-30T13:07:23.836Z,12.11
2018-09-30T13:09:55.019Z,12.17
2018-09-30T13:12:25.852Z,12.06
2018-09-30T13:14:57.168Z,12.19
2018-09-30T13:17:28.374Z,12.23
2018-09-30T13:19:59.297Z,12.22
2018-09-30T13:22:30.131Z,12.31
2018-09-30T13:25:01.089Z,12.35
2018-09-30T13:27:31.933Z,12.54
2018-09-30T13:30:02.833Z,12.64
2018-09-30T13:32:33.665Z,12.61
2018-09-30T13:35:04.564Z,12.44
2018-09-30T13:37:35.399Z,12.31
2018-09-30T13:40:06.488Z,12.34
2018-09-30T13:42:37.962Z,12.36
2018-09-30T13:45:09.331Z,12.33
2018-09-30T13:47:40.180Z,12.34
2018-09-30T13:50:11.119Z,12.44
2018-09-30T13:52:42.040Z,12.36
2018-09-30T13:55:13.104Z,12.50
2018-09-30T13:57:44.551Z,12.45
2018-09-30T14:00:15.573Z,12.49
2018-09-30T14:02:46.418Z,12.32
2018-09-30T14:05:17.381Z,12.26
2018-09-30T14:07:48.224Z,12.28
2018-09-30T14:10:19.646Z,12.31
2018-09-30T14:12:50.483Z,12.28
2018-09-30T14:15:21.366Z,12.37
2018-09-30T14:17:52.290Z,12.56
2018-09-30T14:20:23.193Z,12.78
2018-09-30T14:22:54.044Z,12.75
2018-09-30T14:25:24.981Z,12.67
2018-09-30T14:27:55.861Z,12.58
2018-09-30T14:30:26.770Z,12.58
2018-09-30T14:32:57.681Z,12.52
2018-09-30T14:35:28.577Z,12.52
2018-09-30T14:37:59.414Z,12.38
2018-09-30T14:40:30.385Z,12.44
2018-09-30T14:43:01.223Z,12.51
2018-09-30T14:45:32.513Z,12.48
2018-09-30T14:48:03.364Z,12.40
2018-09-30T14:50:34.386Z,12.50
2018-09-30T14:53:05.260Z,12.41
2018-09-30T14:55:36.702Z,12.37
2018-09-30T14:58:07.661Z,12.47
2018-09-30T15:00:38.660Z,12.41
2018-09-30T15:03:09.501Z,12.35
2018-09-30T15:05:40.425Z,12.13
2018-09-30T15:08:11.331Z,12.29
2018-09-30T15:10:42.323Z,12.21
2018-09-30T15:13:13.217Z,12.24
2018-09-30T15:15:44.101Z,11.94
2018-09-30T15:18:14.964Z,12.03
2018-09-30T15:20:45.869Z,12.16
2018-09-30T15:23:16.716Z,12.00
2018-09-30T15:25:47.663Z,12.12
2018-09-30T15:28:18.500Z,11.88
2018-09-30T15:30:49.546Z,11.78
2018-09-30T15:33:20.443Z,11.82
2018-09-30T15:35:52.328Z,11.97
2018-09-30T15:38:23.154Z,11.97
2018-09-30T15:40:54.093Z,11.91
2018-09-30T15:43:24.957Z,12.01
2018-09-30T15:45:55.851Z,11.97
2018-09-30T15:48:27.282Z,11.93
2018-09-30T15:50:58.163Z,11.84
2018-09-30T15:53:29.054Z,11.69
2018-09-30T15:56:00.168Z,11.78
2018-09-30T15:58:31.040Z,11.66
2018-09-30T16:01:01.968Z,11.71
2018-09-30T16:03:32.862Z,11.57
2018-09-30T16:06:03.821Z,11.60
2018-09-30T16:08:34.689Z,11.69
2018-09-30T16:11:05.677Z,11.57
2018-09-30T16:13:36.536Z,11.57
2018-09-30T16:16:08.045Z,11.33
2018-09-30T16:18:38.903Z,11.18
2018-09-30T16:21:11.216Z,11.32
2018-09-30T16:23:43.862Z,11.27
2018-09-30T16:26:15.045Z,11.13
2018-09-30T16:28:45.878Z,11.03
2018-09-30T16:31:17.178Z,11.00
2018-09-30T16:33:49.183Z,11.17
2018-09-30T16:36:20.250Z,11.27
2018-09-30T16:38:51.204Z,11.29
2018-09-30T16:41:22.237Z,11.44
2018-09-30T16:43:53.382Z,11.38
2018-09-30T16:46:24.268Z,11.44
2018-09-30T16:48:55.157Z,11.45
2018-09-30T16:51:26.119Z,11.42
2018-09-30T16:53:57.097Z,11.41
2018-09-30T16:56:28.185Z,11.28
2018-09-30T16:58:59.059Z,11.30
2018-09-30T17:01:29.979Z,11.26
2018-09-30T17:04:01.031Z,11.21
2018-09-30T17:06:32.025Z,11.13
2018-09-30T17:09:03.328Z,11.08
2018-09-30T17:11:34.345Z,11.12
2018-09-30T17:14:05.194Z,11.18
2018-09-30T17:16:36.692Z,11.31
2018-09-30T17:19:07.783Z,11.27
2018-09-30T17:21:39.308Z,11.18
2018-09-30T17:24:10.588Z,11.13
2018-09-30T17:26:41.615Z,11.12
2018-09-30T17:54:05.692Z,10.62
2018-09-30T17:56:36.802Z,10.48
2018-09-30T17:59:07.954Z,10.46
2018-09-30T18:01:39.418Z,10.40
2018-09-30T18:04:10.704Z,10.33
2018-09-30T18:06:41.900Z,10.43
2018-09-30T18:09:13.226Z,10.38
2018-09-30T18:11:45.203Z,10.51
2018-09-30T18:14:16.356Z,10.38
2018-09-30T18:16:47.672Z,10.34
2018-09-30T18:19:18.658Z,10.38
2018-09-30T18:21:49.756Z,10.54
2018-09-30T18:24:21.178Z,10.41
2018-09-30T18:26:54.430Z,10.60
2018-09-30T18:29:25.769Z,10.62
2018-09-30T18:31:57.106Z,10.63
2018-09-30T18:34:28.369Z,10.69
2018-09-30T18:36:59.593Z,10.64
2018-09-30T18:39:30.888Z,10.71
2018-09-30T18:42:02.221Z,10.86
2018-09-30T18:44:33.541Z,10.81
2018-09-30T18:47:04.655Z,10.90
2018-09-30T18:49:35.764Z,10.97
2018-09-30T18:52:07.691Z,11.04
2018-09-30T18:54:39.741Z,10.94
2018-09-30T18:57:23.292Z,10.97
2018-09-30T18:59:54.339Z,10.90
2018-09-30T19:02:25.301Z,10.94
2018-09-30T19:04:56.376Z,10.89
2018-09-30T19:07:27.371Z,11.09
2018-09-30T19:09:58.298Z,11.14
2018-09-30T19:12:29.228Z,11.21
2018-09-30T19:15:00.357Z,11.13
2018-09-30T19:17:31.416Z,10.89
2018-09-30T19:20:02.575Z,11.07
2018-09-30T19:22:33.563Z,11.20
2018-09-30T19:25:05.017Z,11.19
2018-09-30T19:27:36.499Z,11.11
2018-09-30T19:30:07.615Z,10.63
2018-09-30T19:32:39.912Z,10.62
2018-09-30T19:35:10.813Z,10.67
2018-09-30T19:37:41.725Z,10.80
2018-09-30T19:40:12.879Z,10.83
2018-09-30T19:42:43.763Z,10.83
2018-09-30T19:45:14.732Z,10.71
2018-09-30T19:47:45.646Z,10.78
2018-09-30T19:50:16.582Z,10.86
2018-09-30T19:52:47.499Z,10.83
2018-09-30T19:55:18.427Z,10.75
2018-09-30T19:59:13.942Z,10.82
2018-09-30T20:01:50.684Z,10.97
2018-09-30T20:04:26.686Z,10.93
2018-09-30T20:07:02.610Z,10.89
2018-09-30T20:09:38.493Z,10.96
2018-09-30T20:12:14.664Z,10.97
2018-09-30T20:14:50.516Z,10.70
2018-09-30T20:17:26.597Z,10.66
2018-09-30T20:20:02.431Z,10.78
2018-09-30T20:22:38.414Z,10.78
2018-09-30T20:25:14.285Z,10.65
2018-09-30T20:27:50.145Z,10.76
2018-09-30T20:30:25.969Z,10.72
2018-09-30T20:33:01.911Z,10.72
2018-09-30T20:35:37.861Z,10.65
2018-09-30T20:38:13.695Z,10.72
2018-09-30T20:40:49.580Z,10.66
2018-09-30T20:43:25.456Z,10.44
2018-09-30T20:46:01.376Z,10.33
2018-09-30T20:48:37.314Z,10.40
2018-09-30T20:51:13.285Z,10.45
2018-09-30T20:53:50.612Z,10.43
2018-09-30T20:56:26.512Z,10.45
2018-09-30T20:59:02.481Z,10.45
2018-09-30T21:01:38.326Z,10.55
2018-09-30T21:04:14.308Z,10.63
2018-09-30T21:06:50.328Z,10.66
2018-09-30T21:09:26.192Z,10.72
2018-09-30T21:12:02.266Z,10.80
2018-09-30T21:14:38.394Z,10.73
2018-09-30T21:17:15.423Z,10.71
2018-09-30T21:19:51.537Z,10.70
2018-09-30T21:22:27.856Z,10.71
2018-09-30T21:25:04.237Z,10.72
2018-09-30T21:27:40.244Z,10.75
2018-09-30T21:30:16.043Z,10.75
2018-09-30T21:32:51.850Z,10.79
2018-09-30T21:35:28.064Z,10.85
2018-09-30T21:38:04.409Z,10.77
2018-09-30T21:40:40.369Z,10.86
2018-09-30T21:43:17.036Z,10.87
2018-09-30T21:45:52.901Z,10.86
2018-09-30T21:48:28.734Z,10.86
2018-09-30T21:51:05.049Z,10.89
2018-09-30T21:53:40.865Z,10.87
2018-09-30T21:56:16.713Z,10.80
2018-09-30T21:58:52.619Z,10.80
2018-09-30T22:01:28.820Z,10.58
2018-09-30T22:04:04.768Z,10.64
2018-09-30T22:06:40.684Z,10.73
2018-09-30T22:09:16.676Z,10.95
2018-09-30T22:11:52.503Z,10.94
2018-09-30T22:14:28.339Z,10.79
2018-09-30T22:17:04.242Z,10.73
2018-09-30T22:19:40.125Z,10.68
2018-09-30T22:22:16.100Z,10.68
2018-09-30T22:24:52.076Z,10.75
2018-09-30T22:27:28.255Z,10.66
2018-09-30T22:30:04.161Z,10.65
2018-09-30T22:32:40.169Z,10.42
2018-09-30T22:35:18.343Z,10.39
2018-09-30T22:37:54.257Z,10.51
2018-09-30T22:40:30.213Z,10.38
2018-09-30T22:43:06.565Z,10.37
2018-09-30T22:45:43.386Z,10.37
2018-09-30T22:48:19.256Z,10.25
2018-09-30T22:51:09.716Z,10.23
2018-09-30T22:53:45.685Z,10.19
2018-09-30T22:56:21.645Z,10.27
2018-09-30T22:58:57.473Z,10.35
2018-09-30T23:01:33.366Z,10.41
2018-09-30T23:04:09.176Z,10.45
2018-09-30T23:06:45.024Z,10.33
2018-09-30T23:09:20.900Z,10.42
2018-09-30T23:11:56.971Z,10.50
2018-09-30T23:14:32.790Z,10.58
2018-09-30T23:17:09.195Z,10.42
2018-09-30T23:19:45.080Z,10.32
2018-09-30T23:22:20.854Z,10.32
2018-09-30T23:24:56.737Z,10.33
2018-09-30T23:27:32.685Z,10.40
2018-09-30T23:30:08.705Z,10.57
2018-09-30T23:32:44.629Z,10.46
2018-09-30T23:35:20.598Z,10.46
2018-09-30T23:37:56.421Z,10.41
2018-09-30T23:40:32.357Z,10.43
2018-09-30T23:43:08.222Z,10.50
2018-09-30T23:45:44.052Z,10.51
2018-09-30T23:48:22.338Z,10.32
2018-09-30T23:50:58.296Z,10.27
2018-09-30T23:53:35.299Z,10.30
2018-09-30T23:56:11.151Z,10.37
2018-09-30T23:58:47.056Z,10.38
